Travis Air Force Base Fairfield US
ICAO: KSUU
IATA: SUU
Category: Large
Scheduled Services: No

Elevation: 62 ft
TransAlt. 18000 ft.

Airport Communications:
APP:119.9
ATIS:116.4
CLNC DEL:127.55
DEP:119.9
GND:121.8
PMSV METRO:26.92
COMD POST:141.9
PTD:28.557
TWR:120.75
AERO CLUB UNICOM:123.3

KSUU Zoom In..

Runways:

(A) RW 03L length 11001 ft width 150 ft
ILS 108.35 / hdg 32

(B) RW 03R length 10995 ft width 150 ft
---- / hdg 32

(C) RW 21L length 10995 ft width 150 ft
ILS 110.10 / hdg 212

(D) RW 21R length 11001 ft width 150 ft
ILS 108.35 / hdg 212

Location; KSUU
Day. 16 / Time. 17.58 Zulu
* Altimeter: 29.93
* Temperature: 23° c. 73.4°f.
* Wind from: 230° Speed 14 kn.
Dewpoint: 13° c.
Visibility: 10 Statute Miles.
Clouds: Clear (automated report).

KSUU 161758Z AUTO 23014KT 10SM CLR 23/13 A2993 RMK AO2 SLP142 50000


Wind From 230°
Speed 14 kn.

 
 
jpsmedia.com for Web Design worldairports.se 2018   terms of use